sensor_id;sensor_type;location;lat;lon;timestamp;P1;durP1;ratioP1;P2;durP2;ratioP2
19026;SDS011;9646;52.034;5.554;2023-12-20T00:02:05;8.27;;;2.47;;
19026;SDS011;9646;52.034;5.554;2023-12-20T00:04:34;8.43;;;2.25;;
19026;SDS011;9646;52.034;5.554;2023-12-20T00:07:01;10.55;;;2.65;;
19026;SDS011;9646;52.034;5.554;2023-12-20T00:09:28;11.23;;;2.30;;
19026;SDS011;9646;52.034;5.554;2023-12-20T00:11:55;8.77;;;2.17;;
19026;SDS011;9646;52.034;5.554;2023-12-20T00:14:22;9.23;;;2.17;;
19026;SDS011;9646;52.034;5.554;2023-12-20T00:16:49;12.23;;;2.50;;
19026;SDS011;9646;52.034;5.554;2023-12-20T00:19:17;12.65;;;2.50;;
19026;SDS011;9646;52.034;5.554;2023-12-20T00:21:45;11.43;;;2.13;;
19026;SDS011;9646;52.034;5.554;2023-12-20T00:24:12;9.68;;;2.47;;
19026;SDS011;9646;52.034;5.554;2023-12-20T00:26:39;12.73;;;2.05;;
19026;SDS011;9646;52.034;5.554;2023-12-20T00:29:06;11.90;;;2.80;;
19026;SDS011;9646;52.034;5.554;2023-12-20T00:31:33;9.80;;;2.58;;
19026;SDS011;9646;52.034;5.554;2023-12-20T00:34:01;9.68;;;2.30;;
19026;SDS011;9646;52.034;5.554;2023-12-20T00:36:28;10.35;;;2.53;;
19026;SDS011;9646;52.034;5.554;2023-12-20T00:38:56;12.43;;;2.47;;
19026;SDS011;9646;52.034;5.554;2023-12-20T00:41:23;14.07;;;2.42;;
19026;SDS011;9646;52.034;5.554;2023-12-20T00:43:50;10.25;;;2.30;;
19026;SDS011;9646;52.034;5.554;2023-12-20T00:46:17;7.63;;;2.13;;
19026;SDS011;9646;52.034;5.554;2023-12-20T00:48:44;10.70;;;2.17;;
19026;SDS011;9646;52.034;5.554;2023-12-20T00:51:11;9.73;;;2.10;;
19026;SDS011;9646;52.034;5.554;2023-12-20T00:53:39;7.32;;;2.40;;
19026;SDS011;9646;52.034;5.554;2023-12-20T00:56:07;11.40;;;2.13;;
19026;SDS011;9646;52.034;5.554;2023-12-20T00:58:34;10.73;;;2.15;;
19026;SDS011;9646;52.034;5.554;2023-12-20T01:01:01;10.77;;;2.30;;
19026;SDS011;9646;52.034;5.554;2023-12-20T01:03:28;9.65;;;2.40;;
19026;SDS011;9646;52.034;5.554;2023-12-20T01:05:56;13.02;;;2.47;;
19026;SDS011;9646;52.034;5.554;2023-12-20T01:08:23;11.23;;;2.35;;
19026;SDS011;9646;52.034;5.554;2023-12-20T01:10:50;11.07;;;2.47;;
19026;SDS011;9646;52.034;5.554;2023-12-20T01:13:18;9.15;;;2.35;;
19026;SDS011;9646;52.034;5.554;2023-12-20T01:15:45;9.35;;;2.60;;
19026;SDS011;9646;52.034;5.554;2023-12-20T01:18:13;9.10;;;1.75;;
19026;SDS011;9646;52.034;5.554;2023-12-20T01:20:40;12.95;;;2.83;;
19026;SDS011;9646;52.034;5.554;2023-12-20T01:23:07;11.82;;;3.00;;
19026;SDS011;9646;52.034;5.554;2023-12-20T01:25:34;10.48;;;2.17;;
19026;SDS011;9646;52.034;5.554;2023-12-20T01:28:02;8.32;;;1.90;;
19026;SDS011;9646;52.034;5.554;2023-12-20T01:30:30;15.27;;;2.20;;
19026;SDS011;9646;52.034;5.554;2023-12-20T01:32:59;7.43;;;2.40;;
19026;SDS011;9646;52.034;5.554;2023-12-20T01:35:26;9.77;;;2.03;;
19026;SDS011;9646;52.034;5.554;2023-12-20T01:37:53;12.02;;;2.63;;
19026;SDS011;9646;52.034;5.554;2023-12-20T01:40:21;12.43;;;2.30;;
19026;SDS011;9646;52.034;5.554;2023-12-20T01:42:57;12.70;;;2.67;;
19026;SDS011;9646;52.034;5.554;2023-12-20T01:45:24;7.13;;;1.98;;
19026;SDS011;9646;52.034;5.554;2023-12-20T01:47:52;10.20;;;2.38;;
19026;SDS011;9646;52.034;5.554;2023-12-20T01:50:20;13.63;;;2.63;;
19026;SDS011;9646;52.034;5.554;2023-12-20T01:52:47;10.23;;;2.33;;
19026;SDS011;9646;52.034;5.554;2023-12-20T01:55:17;13.38;;;2.38;;
19026;SDS011;9646;52.034;5.554;2023-12-20T01:57:44;11.35;;;2.55;;
19026;SDS011;9646;52.034;5.554;2023-12-20T02:00:12;8.82;;;2.17;;
19026;SDS011;9646;52.034;5.554;2023-12-20T02:02:40;15.18;;;2.50;;
19026;SDS011;9646;52.034;5.554;2023-12-20T02:05:10;12.48;;;2.70;;
19026;SDS011;9646;52.034;5.554;2023-12-20T02:07:37;10.13;;;2.22;;
19026;SDS011;9646;52.034;5.554;2023-12-20T02:10:05;9.75;;;2.15;;
19026;SDS011;9646;52.034;5.554;2023-12-20T02:12:32;10.57;;;2.53;;
19026;SDS011;9646;52.034;5.554;2023-12-20T02:14:59;9.60;;;2.45;;
19026;SDS011;9646;52.034;5.554;2023-12-20T02:17:26;13.57;;;2.67;;
19026;SDS011;9646;52.034;5.554;2023-12-20T02:19:54;8.00;;;1.70;;
19026;SDS011;9646;52.034;5.554;2023-12-20T02:22:22;5.50;;;2.13;;
19026;SDS011;9646;52.034;5.554;2023-12-20T02:24:49;13.18;;;2.97;;
19026;SDS011;9646;52.034;5.554;2023-12-20T02:27:17;11.75;;;2.38;;
19026;SDS011;9646;52.034;5.554;2023-12-20T02:29:44;14.73;;;2.30;;
19026;SDS011;9646;52.034;5.554;2023-12-20T02:32:13;13.13;;;2.30;;
19026;SDS011;9646;52.034;5.554;2023-12-20T02:34:40;11.80;;;2.70;;
19026;SDS011;9646;52.034;5.554;2023-12-20T02:37:07;8.07;;;2.60;;
19026;SDS011;9646;52.034;5.554;2023-12-20T02:39:36;9.15;;;2.10;;
19026;SDS011;9646;52.034;5.554;2023-12-20T02:42:03;10.52;;;2.38;;
19026;SDS011;9646;52.034;5.554;2023-12-20T02:44:30;14.80;;;3.03;;
19026;SDS011;9646;52.034;5.554;2023-12-20T02:46:57;12.63;;;2.83;;
19026;SDS011;9646;52.034;5.554;2023-12-20T02:49:24;11.13;;;2.80;;
19026;SDS011;9646;52.034;5.554;2023-12-20T02:51:51;13.35;;;2.90;;
19026;SDS011;9646;52.034;5.554;2023-12-20T02:54:18;7.70;;;2.38;;
19026;SDS011;9646;52.034;5.554;2023-12-20T02:56:47;12.30;;;2.53;;
19026;SDS011;9646;52.034;5.554;2023-12-20T02:59:14;14.60;;;3.03;;
19026;SDS011;9646;52.034;5.554;2023-12-20T03:01:41;12.07;;;2.85;;
19026;SDS011;9646;52.034;5.554;2023-12-20T03:04:09;8.77;;;2.47;;
19026;SDS011;9646;52.034;5.554;2023-12-20T03:06:36;11.90;;;2.80;;
19026;SDS011;9646;52.034;5.554;2023-12-20T03:09:03;12.25;;;2.25;;
19026;SDS011;9646;52.034;5.554;2023-12-20T03:11:30;9.43;;;2.13;;
19026;SDS011;9646;52.034;5.554;2023-12-20T03:13:59;7.28;;;1.95;;
19026;SDS011;9646;52.034;5.554;2023-12-20T03:16:26;10.07;;;2.75;;
19026;SDS011;9646;52.034;5.554;2023-12-20T03:18:53;8.90;;;2.33;;
19026;SDS011;9646;52.034;5.554;2023-12-20T03:21:20;15.05;;;3.03;;
19026;SDS011;9646;52.034;5.554;2023-12-20T03:23:47;11.88;;;2.28;;
19026;SDS011;9646;52.034;5.554;2023-12-20T03:26:14;16.27;;;2.58;;
19026;SDS011;9646;52.034;5.554;2023-12-20T03:28:41;13.32;;;2.88;;
19026;SDS011;9646;52.034;5.554;2023-12-20T03:31:10;11.40;;;2.70;;
19026;SDS011;9646;52.034;5.554;2023-12-20T03:33:37;9.63;;;2.70;;
19026;SDS011;9646;52.034;5.554;2023-12-20T03:36:04;7.75;;;2.00;;
19026;SDS011;9646;52.034;5.554;2023-12-20T03:38:32;10.65;;;2.17;;
19026;SDS011;9646;52.034;5.554;2023-12-20T03:40:59;8.85;;;2.42;;
19026;SDS011;9646;52.034;5.554;2023-12-20T03:43:26;10.15;;;2.60;;
19026;SDS011;9646;52.034;5.554;2023-12-20T03:45:53;11.02;;;2.35;;
19026;SDS011;9646;52.034;5.554;2023-12-20T03:48:21;14.25;;;3.30;;
19026;SDS011;9646;52.034;5.554;2023-12-20T03:50:48;10.27;;;2.75;;
19026;SDS011;9646;52.034;5.554;2023-12-20T03:53:15;10.90;;;2.67;;
19026;SDS011;9646;52.034;5.554;2023-12-20T03:55:42;15.90;;;3.65;;
19026;SDS011;9646;52.034;5.554;2023-12-20T03:58:09;16.83;;;2.67;;
19026;SDS011;9646;52.034;5.554;2023-12-20T04:00:37;11.68;;;3.35;;
19026;SDS011;9646;52.034;5.554;2023-12-20T04:03:04;15.15;;;2.83;;
19026;SDS011;9646;52.034;5.554;2023-12-20T04:05:32;10.95;;;3.08;;
19026;SDS011;9646;52.034;5.554;2023-12-20T04:07:59;14.23;;;3.63;;
19026;SDS011;9646;52.034;5.554;2023-12-20T04:10:26;13.13;;;2.97;;
19026;SDS011;9646;52.034;5.554;2023-12-20T04:12:53;13.82;;;3.10;;
19026;SDS011;9646;52.034;5.554;2023-12-20T04:15:21;11.43;;;2.70;;
19026;SDS011;9646;52.034;5.554;2023-12-20T04:17:48;13.68;;;3.08;;
19026;SDS011;9646;52.034;5.554;2023-12-20T04:20:15;16.02;;;4.65;;
19026;SDS011;9646;52.034;5.554;2023-12-20T04:22:43;16.20;;;3.38;;
19026;SDS011;9646;52.034;5.554;2023-12-20T04:25:10;17.52;;;3.88;;
19026;SDS011;9646;52.034;5.554;2023-12-20T04:27:37;16.58;;;3.90;;
19026;SDS011;9646;52.034;5.554;2023-12-20T04:30:05;15.43;;;3.15;;
19026;SDS011;9646;52.034;5.554;2023-12-20T04:32:32;16.50;;;4.03;;
19026;SDS011;9646;52.034;5.554;2023-12-20T04:34:59;9.38;;;2.95;;
19026;SDS011;9646;52.034;5.554;2023-12-20T04:37:26;19.00;;;3.60;;
19026;SDS011;9646;52.034;5.554;2023-12-20T04:39:55;12.60;;;3.40;;
19026;SDS011;9646;52.034;5.554;2023-12-20T04:42:22;20.65;;;4.28;;
19026;SDS011;9646;52.034;5.554;2023-12-20T04:44:49;16.95;;;3.00;;
19026;SDS011;9646;52.034;5.554;2023-12-20T04:47:16;19.67;;;3.38;;
19026;SDS011;9646;52.034;5.554;2023-12-20T04:49:43;14.88;;;3.58;;
19026;SDS011;9646;52.034;5.554;2023-12-20T04:52:11;19.05;;;3.42;;
19026;SDS011;9646;52.034;5.554;2023-12-20T04:54:38;14.40;;;3.08;;
19026;SDS011;9646;52.034;5.554;2023-12-20T04:57:06;12.57;;;3.22;;
19026;SDS011;9646;52.034;5.554;2023-12-20T04:59:33;14.18;;;3.03;;
19026;SDS011;9646;52.034;5.554;2023-12-20T05:02:00;17.05;;;3.83;;
19026;SDS011;9646;52.034;5.554;2023-12-20T05:04:27;22.55;;;4.18;;
19026;SDS011;9646;52.034;5.554;2023-12-20T05:06:54;14.50;;;3.13;;
19026;SDS011;9646;52.034;5.554;2023-12-20T05:09:22;19.15;;;3.75;;
19026;SDS011;9646;52.034;5.554;2023-12-20T05:11:49;18.92;;;4.03;;
19026;SDS011;9646;52.034;5.554;2023-12-20T05:14:17;21.10;;;3.53;;
19026;SDS011;9646;52.034;5.554;2023-12-20T05:16:44;15.13;;;3.38;;
19026;SDS011;9646;52.034;5.554;2023-12-20T05:19:11;15.48;;;3.80;;
19026;SDS011;9646;52.034;5.554;2023-12-20T05:21:39;17.95;;;4.10;;
19026;SDS011;9646;52.034;5.554;2023-12-20T05:24:07;16.35;;;3.38;;
19026;SDS011;9646;52.034;5.554;2023-12-20T05:26:34;13.98;;;3.30;;
19026;SDS011;9646;52.034;5.554;2023-12-20T05:29:01;18.70;;;3.97;;
19026;SDS011;9646;52.034;5.554;2023-12-20T05:31:29;15.15;;;3.97;;
19026;SDS011;9646;52.034;5.554;2023-12-20T05:33:56;15.90;;;3.53;;
19026;SDS011;9646;52.034;5.554;2023-12-20T05:36:23;16.83;;;3.70;;
19026;SDS011;9646;52.034;5.554;2023-12-20T05:38:50;13.57;;;3.17;;
19026;SDS011;9646;52.034;5.554;2023-12-20T05:41:18;17.63;;;3.90;;
19026;SDS011;9646;52.034;5.554;2023-12-20T05:43:46;15.70;;;3.53;;
19026;SDS011;9646;52.034;5.554;2023-12-20T05:46:13;18.35;;;3.28;;
19026;SDS011;9646;52.034;5.554;2023-12-20T05:48:42;20.00;;;4.72;;
19026;SDS011;9646;52.034;5.554;2023-12-20T05:51:11;16.20;;;3.95;;
19026;SDS011;9646;52.034;5.554;2023-12-20T05:53:38;16.17;;;3.28;;
19026;SDS011;9646;52.034;5.554;2023-12-20T05:56:05;13.43;;;3.25;;
19026;SDS011;9646;52.034;5.554;2023-12-20T05:58:32;16.83;;;3.38;;
19026;SDS011;9646;52.034;5.554;2023-12-20T06:00:59;12.00;;;4.25;;
19026;SDS011;9646;52.034;5.554;2023-12-20T06:03:27;16.70;;;5.25;;
19026;SDS011;9646;52.034;5.554;2023-12-20T06:05:55;11.60;;;3.45;;
19026;SDS011;9646;52.034;5.554;2023-12-20T06:08:22;14.95;;;3.53;;
19026;SDS011;9646;52.034;5.554;2023-12-20T06:10:49;11.63;;;2.92;;
19026;SDS011;9646;52.034;5.554;2023-12-20T06:13:16;15.68;;;3.47;;
19026;SDS011;9646;52.034;5.554;2023-12-20T06:15:43;15.38;;;3.42;;
19026;SDS011;9646;52.034;5.554;2023-12-20T06:18:10;15.93;;;3.63;;
19026;SDS011;9646;52.034;5.554;2023-12-20T06:20:37;12.52;;;2.85;;
19026;SDS011;9646;52.034;5.554;2023-12-20T06:23:06;18.40;;;4.18;;
19026;SDS011;9646;52.034;5.554;2023-12-20T06:25:33;14.23;;;2.83;;
19026;SDS011;9646;52.034;5.554;2023-12-20T06:28:00;17.20;;;4.35;;
19026;SDS011;9646;52.034;5.554;2023-12-20T06:30:27;18.98;;;3.55;;
19026;SDS011;9646;52.034;5.554;2023-12-20T06:32:54;14.30;;;3.60;;
19026;SDS011;9646;52.034;5.554;2023-12-20T06:35:22;21.75;;;3.35;;
19026;SDS011;9646;52.034;5.554;2023-12-20T06:37:49;15.70;;;3.65;;
19026;SDS011;9646;52.034;5.554;2023-12-20T06:40:18;15.55;;;3.67;;
19026;SDS011;9646;52.034;5.554;2023-12-20T06:42:45;19.00;;;3.28;;
19026;SDS011;9646;52.034;5.554;2023-12-20T06:45:12;15.25;;;3.17;;
19026;SDS011;9646;52.034;5.554;2023-12-20T06:47:40;15.13;;;4.35;;
19026;SDS011;9646;52.034;5.554;2023-12-20T06:50:07;16.75;;;3.63;;
19026;SDS011;9646;52.034;5.554;2023-12-20T06:52:34;17.42;;;3.38;;
19026;SDS011;9646;52.034;5.554;2023-12-20T06:55:01;19.85;;;3.90;;
19026;SDS011;9646;52.034;5.554;2023-12-20T06:57:30;12.95;;;3.30;;
19026;SDS011;9646;52.034;5.554;2023-12-20T06:59:57;13.63;;;3.20;;
19026;SDS011;9646;52.034;5.554;2023-12-20T07:02:24;13.80;;;3.20;;
19026;SDS011;9646;52.034;5.554;2023-12-20T07:04:54;18.58;;;3.28;;
19026;SDS011;9646;52.034;5.554;2023-12-20T07:07:21;14.30;;;3.70;;
19026;SDS011;9646;52.034;5.554;2023-12-20T07:09:49;20.70;;;4.07;;
19026;SDS011;9646;52.034;5.554;2023-12-20T07:12:16;20.25;;;4.68;;
19026;SDS011;9646;52.034;5.554;2023-12-20T07:14:45;14.98;;;3.75;;
19026;SDS011;9646;52.034;5.554;2023-12-20T07:17:12;15.38;;;3.83;;
19026;SDS011;9646;52.034;5.554;2023-12-20T07:19:40;15.88;;;4.22;;
19026;SDS011;9646;52.034;5.554;2023-12-20T07:22:07;16.73;;;3.88;;
19026;SDS011;9646;52.034;5.554;2023-12-20T07:24:34;13.82;;;3.88;;
19026;SDS011;9646;52.034;5.554;2023-12-20T07:27:02;17.40;;;4.25;;
19026;SDS011;9646;52.034;5.554;2023-12-20T07:29:29;16.17;;;4.00;;
19026;SDS011;9646;52.034;5.554;2023-12-20T07:31:57;16.92;;;4.05;;
19026;SDS011;9646;52.034;5.554;2023-12-20T07:34:24;19.83;;;4.10;;
19026;SDS011;9646;52.034;5.554;2023-12-20T07:36:51;17.83;;;3.67;;
19026;SDS011;9646;52.034;5.554;2023-12-20T07:39:18;19.23;;;3.80;;
19026;SDS011;9646;52.034;5.554;2023-12-20T07:41:45;16.20;;;3.72;;
19026;SDS011;9646;52.034;5.554;2023-12-20T07:44:12;21.33;;;3.42;;
19026;SDS011;9646;52.034;5.554;2023-12-20T07:46:40;18.58;;;3.83;;
19026;SDS011;9646;52.034;5.554;2023-12-20T07:49:09;18.60;;;4.10;;
19026;SDS011;9646;52.034;5.554;2023-12-20T07:51:36;11.35;;;2.90;;
19026;SDS011;9646;52.034;5.554;2023-12-20T07:54:03;16.55;;;3.38;;
19026;SDS011;9646;52.034;5.554;2023-12-20T07:56:30;13.73;;;3.20;;
19026;SDS011;9646;52.034;5.554;2023-12-20T07:58:57;17.02;;;3.85;;
19026;SDS011;9646;52.034;5.554;2023-12-20T08:01:24;15.77;;;3.60;;
19026;SDS011;9646;52.034;5.554;2023-12-20T08:03:51;17.92;;;3.30;;
19026;SDS011;9646;52.034;5.554;2023-12-20T08:06:20;16.92;;;4.60;;
19026;SDS011;9646;52.034;5.554;2023-12-20T08:08:47;13.18;;;3.08;;
19026;SDS011;9646;52.034;5.554;2023-12-20T08:11:15;15.23;;;2.88;;
19026;SDS011;9646;52.034;5.554;2023-12-20T08:13:43;21.55;;;4.15;;
19026;SDS011;9646;52.034;5.554;2023-12-20T08:16:10;20.25;;;4.68;;
19026;SDS011;9646;52.034;5.554;2023-12-20T08:18:38;14.35;;;3.67;;
19026;SDS011;9646;52.034;5.554;2023-12-20T08:21:05;13.77;;;3.33;;
19026;SDS011;9646;52.034;5.554;2023-12-20T08:23:34;17.20;;;4.53;;
19026;SDS011;9646;52.034;5.554;2023-12-20T08:26:03;24.20;;;3.70;;
19026;SDS011;9646;52.034;5.554;2023-12-20T08:28:30;17.42;;;4.22;;
19026;SDS011;9646;52.034;5.554;2023-12-20T08:30:57;18.88;;;4.38;;
19026;SDS011;9646;52.034;5.554;2023-12-20T08:33:24;13.13;;;4.15;;
19026;SDS011;9646;52.034;5.554;2023-12-20T08:35:51;14.18;;;3.58;;
19026;SDS011;9646;52.034;5.554;2023-12-20T08:38:18;15.48;;;3.95;;
19026;SDS011;9646;52.034;5.554;2023-12-20T08:40:47;19.88;;;4.38;;
19026;SDS011;9646;52.034;5.554;2023-12-20T08:43:14;14.75;;;3.20;;
19026;SDS011;9646;52.034;5.554;2023-12-20T08:45:41;12.60;;;3.78;;
19026;SDS011;9646;52.034;5.554;2023-12-20T08:48:08;16.35;;;4.50;;
19026;SDS011;9646;52.034;5.554;2023-12-20T08:50:35;14.30;;;3.60;;
19026;SDS011;9646;52.034;5.554;2023-12-20T08:53:03;19.30;;;4.45;;
19026;SDS011;9646;52.034;5.554;2023-12-20T08:55:31;12.98;;;3.28;;
19026;SDS011;9646;52.034;5.554;2023-12-20T08:58:00;14.55;;;3.95;;
19026;SDS011;9646;52.034;5.554;2023-12-20T09:00:27;17.30;;;3.33;;
19026;SDS011;9646;52.034;5.554;2023-12-20T09:02:54;16.73;;;3.88;;
19026;SDS011;9646;52.034;5.554;2023-12-20T09:05:21;14.73;;;3.70;;
19026;SDS011;9646;52.034;5.554;2023-12-20T09:07:49;21.00;;;4.50;;
19026;SDS011;9646;52.034;5.554;2023-12-20T09:10:16;20.55;;;3.88;;
19026;SDS011;9646;52.034;5.554;2023-12-20T09:12:47;16.30;;;3.47;;
19026;SDS011;9646;52.034;5.554;2023-12-20T09:15:15;13.68;;;3.90;;
19026;SDS011;9646;52.034;5.554;2023-12-20T09:17:42;14.65;;;3.90;;
19026;SDS011;9646;52.034;5.554;2023-12-20T09:20:09;15.93;;;4.30;;
19026;SDS011;9646;52.034;5.554;2023-12-20T09:22:38;11.70;;;3.13;;
19026;SDS011;9646;52.034;5.554;2023-12-20T09:25:07;16.33;;;4.25;;
19026;SDS011;9646;52.034;5.554;2023-12-20T09:27:34;11.15;;;2.85;;
19026;SDS011;9646;52.034;5.554;2023-12-20T09:30:01;13.15;;;2.38;;
19026;SDS011;9646;52.034;5.554;2023-12-20T09:32:30;21.25;;;3.65;;
19026;SDS011;9646;52.034;5.554;2023-12-20T09:34:57;11.77;;;3.28;;
19026;SDS011;9646;52.034;5.554;2023-12-20T09:37:25;16.40;;;3.97;;
19026;SDS011;9646;52.034;5.554;2023-12-20T09:39:53;19.88;;;4.57;;
19026;SDS011;9646;52.034;5.554;2023-12-20T09:42:21;13.95;;;3.53;;
19026;SDS011;9646;52.034;5.554;2023-12-20T09:44:51;17.23;;;4.35;;
19026;SDS011;9646;52.034;5.554;2023-12-20T09:47:18;12.65;;;3.17;;
19026;SDS011;9646;52.034;5.554;2023-12-20T09:49:48;15.30;;;3.80;;
19026;SDS011;9646;52.034;5.554;2023-12-20T09:52:16;15.02;;;3.42;;
19026;SDS011;9646;52.034;5.554;2023-12-20T09:54:45;12.93;;;3.75;;
19026;SDS011;9646;52.034;5.554;2023-12-20T09:57:12;13.98;;;3.55;;
19026;SDS011;9646;52.034;5.554;2023-12-20T09:59:39;16.60;;;4.10;;
19026;SDS011;9646;52.034;5.554;2023-12-20T10:02:07;12.15;;;3.65;;
19026;SDS011;9646;52.034;5.554;2023-12-20T10:04:36;20.30;;;3.90;;
19026;SDS011;9646;52.034;5.554;2023-12-20T10:07:05;17.05;;;4.10;;
19026;SDS011;9646;52.034;5.554;2023-12-20T10:09:33;20.10;;;3.80;;
19026;SDS011;9646;52.034;5.554;2023-12-20T10:12:00;15.27;;;4.10;;
19026;SDS011;9646;52.034;5.554;2023-12-20T10:14:27;14.32;;;3.75;;
19026;SDS011;9646;52.034;5.554;2023-12-20T10:16:56;17.45;;;3.28;;
19026;SDS011;9646;52.034;5.554;2023-12-20T10:19:28;18.25;;;4.07;;
19026;SDS011;9646;52.034;5.554;2023-12-20T10:21:55;14.10;;;3.50;;
19026;SDS011;9646;52.034;5.554;2023-12-20T10:24:23;14.18;;;3.67;;
19026;SDS011;9646;52.034;5.554;2023-12-20T10:27:00;14.48;;;3.88;;
19026;SDS011;9646;52.034;5.554;2023-12-20T10:29:30;16.27;;;4.20;;
19026;SDS011;9646;52.034;5.554;2023-12-20T10:31:58;17.83;;;3.35;;
19026;SDS011;9646;52.034;5.554;2023-12-20T10:34:25;11.85;;;3.03;;
19026;SDS011;9646;52.034;5.554;2023-12-20T10:36:52;16.05;;;2.70;;
19026;SDS011;9646;52.034;5.554;2023-12-20T10:39:19;19.98;;;4.13;;
19026;SDS011;9646;52.034;5.554;2023-12-20T10:41:48;17.70;;;3.30;;
19026;SDS011;9646;52.034;5.554;2023-12-20T10:44:15;16.75;;;3.45;;
19026;SDS011;9646;52.034;5.554;2023-12-20T10:46:43;19.92;;;3.40;;
19026;SDS011;9646;52.034;5.554;2023-12-20T10:49:16;17.10;;;3.38;;
19026;SDS011;9646;52.034;5.554;2023-12-20T10:51:44;19.50;;;3.83;;
19026;SDS011;9646;52.034;5.554;2023-12-20T10:54:12;13.27;;;3.33;;
19026;SDS011;9646;52.034;5.554;2023-12-20T10:56:39;15.18;;;2.97;;
19026;SDS011;9646;52.034;5.554;2023-12-20T10:59:08;12.68;;;3.00;;
19026;SDS011;9646;52.034;5.554;2023-12-20T11:01:37;16.70;;;3.53;;
19026;SDS011;9646;52.034;5.554;2023-12-20T11:04:05;16.27;;;3.95;;
19026;SDS011;9646;52.034;5.554;2023-12-20T11:06:36;15.57;;;3.80;;
19026;SDS011;9646;52.034;5.554;2023-12-20T11:09:08;13.35;;;3.13;;
19026;SDS011;9646;52.034;5.554;2023-12-20T11:11:40;22.55;;;4.82;;
19026;SDS011;9646;52.034;5.554;2023-12-20T11:14:14;13.52;;;2.92;;
19026;SDS011;9646;52.034;5.554;2023-12-20T11:16:42;16.42;;;3.42;;
19026;SDS011;9646;52.034;5.554;2023-12-20T11:19:09;14.68;;;3.35;;
19026;SDS011;9646;52.034;5.554;2023-12-20T11:21:39;12.98;;;3.03;;
19026;SDS011;9646;52.034;5.554;2023-12-20T11:24:06;12.05;;;2.72;;
19026;SDS011;9646;52.034;5.554;2023-12-20T11:26:33;16.40;;;3.30;;
19026;SDS011;9646;52.034;5.554;2023-12-20T11:31:48;16.75;;;3.35;;
19026;SDS011;9646;52.034;5.554;2023-12-20T11:34:15;14.10;;;3.30;;
19026;SDS011;9646;52.034;5.554;2023-12-20T11:36:44;15.40;;;3.70;;
19026;SDS011;9646;52.034;5.554;2023-12-20T11:39:11;13.32;;;2.85;;
19026;SDS011;9646;52.034;5.554;2023-12-20T11:41:38;10.85;;;3.03;;
19026;SDS011;9646;52.034;5.554;2023-12-20T11:44:05;12.82;;;2.42;;
19026;SDS011;9646;52.034;5.554;2023-12-20T11:46:32;13.18;;;3.25;;
19026;SDS011;9646;52.034;5.554;2023-12-20T11:49:01;13.52;;;3.70;;
19026;SDS011;9646;52.034;5.554;2023-12-20T11:51:28;19.05;;;3.58;;
19026;SDS011;9646;52.034;5.554;2023-12-20T11:53:55;9.93;;;2.58;;
19026;SDS011;9646;52.034;5.554;2023-12-20T11:56:22;11.88;;;3.40;;
19026;SDS011;9646;52.034;5.554;2023-12-20T11:58:50;13.13;;;4.22;;
19026;SDS011;9646;52.034;5.554;2023-12-20T12:01:17;9.55;;;2.65;;
19026;SDS011;9646;52.034;5.554;2023-12-20T12:03:46;8.98;;;2.58;;
19026;SDS011;9646;52.034;5.554;2023-12-20T12:06:14;9.38;;;2.67;;
19026;SDS011;9646;52.034;5.554;2023-12-20T12:08:41;13.88;;;2.60;;
19026;SDS011;9646;52.034;5.554;2023-12-20T12:11:08;11.82;;;2.67;;
19026;SDS011;9646;52.034;5.554;2023-12-20T12:13:36;9.32;;;2.40;;
19026;SDS011;9646;52.034;5.554;2023-12-20T12:16:03;12.77;;;2.78;;
19026;SDS011;9646;52.034;5.554;2023-12-20T12:18:31;11.65;;;2.67;;
19026;SDS011;9646;52.034;5.554;2023-12-20T12:21:01;12.05;;;2.88;;
19026;SDS011;9646;52.034;5.554;2023-12-20T12:23:30;9.98;;;2.65;;
19026;SDS011;9646;52.034;5.554;2023-12-20T12:25:57;9.75;;;2.70;;
19026;SDS011;9646;52.034;5.554;2023-12-20T12:28:25;11.93;;;2.60;;
19026;SDS011;9646;52.034;5.554;2023-12-20T12:30:57;16.20;;;3.08;;
19026;SDS011;9646;52.034;5.554;2023-12-20T12:33:24;15.95;;;3.78;;
19026;SDS011;9646;52.034;5.554;2023-12-20T12:35:52;13.75;;;3.17;;
19026;SDS011;9646;52.034;5.554;2023-12-20T12:38:19;9.77;;;2.95;;
19026;SDS011;9646;52.034;5.554;2023-12-20T12:40:48;12.93;;;3.65;;
19026;SDS011;9646;52.034;5.554;2023-12-20T12:43:16;16.02;;;4.22;;
19026;SDS011;9646;52.034;5.554;2023-12-20T12:45:43;16.42;;;3.67;;
19026;SDS011;9646;52.034;5.554;2023-12-20T12:48:10;12.52;;;2.60;;
19026;SDS011;9646;52.034;5.554;2023-12-20T12:50:37;14.38;;;3.00;;
19026;SDS011;9646;52.034;5.554;2023-12-20T12:53:04;8.85;;;3.28;;
19026;SDS011;9646;52.034;5.554;2023-12-20T12:55:31;7.07;;;2.08;;
19026;SDS011;9646;52.034;5.554;2023-12-20T12:57:58;10.23;;;2.05;;
19026;SDS011;9646;52.034;5.554;2023-12-20T13:00:25;12.27;;;2.22;;
19026;SDS011;9646;52.034;5.554;2023-12-20T13:02:53;13.77;;;3.05;;
19026;SDS011;9646;52.034;5.554;2023-12-20T13:05:20;10.43;;;2.70;;
19026;SDS011;9646;52.034;5.554;2023-12-20T13:07:47;15.20;;;2.75;;
19026;SDS011;9646;52.034;5.554;2023-12-20T13:10:14;14.43;;;2.95;;
19026;SDS011;9646;52.034;5.554;2023-12-20T13:12:42;12.95;;;3.53;;
19026;SDS011;9646;52.034;5.554;2023-12-20T13:15:10;15.27;;;3.28;;
19026;SDS011;9646;52.034;5.554;2023-12-20T13:17:37;14.15;;;3.25;;
19026;SDS011;9646;52.034;5.554;2023-12-20T13:20:05;16.92;;;3.10;;
19026;SDS011;9646;52.034;5.554;2023-12-20T13:22:32;12.10;;;3.10;;
19026;SDS011;9646;52.034;5.554;2023-12-20T13:25:01;12.50;;;2.95;;
19026;SDS011;9646;52.034;5.554;2023-12-20T13:27:28;14.80;;;3.10;;
19026;SDS011;9646;52.034;5.554;2023-12-20T13:29:55;12.65;;;3.40;;
19026;SDS011;9646;52.034;5.554;2023-12-20T13:32:24;11.23;;;2.40;;
19026;SDS011;9646;52.034;5.554;2023-12-20T13:34:51;13.35;;;3.00;;
19026;SDS011;9646;52.034;5.554;2023-12-20T13:37:18;8.90;;;2.85;;
19026;SDS011;9646;52.034;5.554;2023-12-20T13:39:45;18.27;;;4.25;;
19026;SDS011;9646;52.034;5.554;2023-12-20T13:42:12;12.38;;;4.38;;
19026;SDS011;9646;52.034;5.554;2023-12-20T13:44:39;16.15;;;2.70;;
19026;SDS011;9646;52.034;5.554;2023-12-20T13:47:07;17.88;;;3.75;;
19026;SDS011;9646;52.034;5.554;2023-12-20T13:49:35;16.17;;;3.00;;
19026;SDS011;9646;52.034;5.554;2023-12-20T13:52:02;9.20;;;2.17;;
19026;SDS011;9646;52.034;5.554;2023-12-20T13:54:29;16.38;;;3.05;;
19026;SDS011;9646;52.034;5.554;2023-12-20T13:56:56;13.52;;;2.70;;
19026;SDS011;9646;52.034;5.554;2023-12-20T13:59:23;12.48;;;2.60;;
19026;SDS011;9646;52.034;5.554;2023-12-20T14:01:51;13.30;;;3.10;;
19026;SDS011;9646;52.034;5.554;2023-12-20T14:04:18;16.85;;;4.00;;
19026;SDS011;9646;52.034;5.554;2023-12-20T14:06:46;14.68;;;3.08;;
19026;SDS011;9646;52.034;5.554;2023-12-20T14:09:13;12.98;;;2.38;;
19026;SDS011;9646;52.034;5.554;2023-12-20T14:11:41;12.95;;;2.55;;
19026;SDS011;9646;52.034;5.554;2023-12-20T14:14:08;14.48;;;3.03;;
19026;SDS011;9646;52.034;5.554;2023-12-20T14:16:35;9.02;;;2.55;;
19026;SDS011;9646;52.034;5.554;2023-12-20T14:19:03;15.88;;;2.88;;
19026;SDS011;9646;52.034;5.554;2023-12-20T14:21:32;13.50;;;3.10;;
19026;SDS011;9646;52.034;5.554;2023-12-20T14:24:00;9.23;;;2.70;;
19026;SDS011;9646;52.034;5.554;2023-12-20T14:26:29;9.07;;;2.40;;
19026;SDS011;9646;52.034;5.554;2023-12-20T14:28:56;12.80;;;3.00;;
19026;SDS011;9646;52.034;5.554;2023-12-20T14:31:23;16.92;;;3.17;;
19026;SDS011;9646;52.034;5.554;2023-12-20T14:33:50;17.00;;;2.90;;
19026;SDS011;9646;52.034;5.554;2023-12-20T14:36:18;11.27;;;3.63;;
19026;SDS011;9646;52.034;5.554;2023-12-20T14:38:45;13.20;;;3.08;;
19026;SDS011;9646;52.034;5.554;2023-12-20T14:41:15;11.40;;;2.50;;
19026;SDS011;9646;52.034;5.554;2023-12-20T14:43:43;10.55;;;2.60;;
19026;SDS011;9646;52.034;5.554;2023-12-20T14:46:11;9.60;;;2.35;;
19026;SDS011;9646;52.034;5.554;2023-12-20T14:48:40;15.65;;;2.80;;
19026;SDS011;9646;52.034;5.554;2023-12-20T14:51:07;11.77;;;3.13;;
19026;SDS011;9646;52.034;5.554;2023-12-20T14:53:35;14.18;;;3.20;;
19026;SDS011;9646;52.034;5.554;2023-12-20T14:56:03;16.27;;;3.08;;